createdAt,value
2022-10-28T00:01:04.601Z,176.90
2022-10-28T00:03:32.922Z,180.77
2022-10-28T00:06:05.094Z,125.70
2022-10-28T00:08:34.993Z,112.97
2022-10-28T00:11:05.577Z,139.53
2022-10-28T00:13:33.766Z,142.37
2022-10-28T00:16:06.886Z,150.20
2022-10-28T00:18:34.855Z,153.27
2022-10-28T00:21:04.459Z,153.50
2022-10-28T00:23:34.014Z,191.67
2022-10-28T00:26:06.729Z,169.43
2022-10-28T00:28:34.696Z,163.60
2022-10-28T00:31:10.887Z,172.87
2022-10-28T00:33:39.306Z,175.30
2022-10-28T00:36:13.161Z,158.53
2022-10-28T00:38:43.875Z,148.17
2022-10-28T00:41:13.000Z,120.20
2022-10-28T00:43:42.989Z,168.17
2022-10-28T00:46:25.789Z,174.87
2022-10-28T00:48:56.472Z,181.27
2022-10-28T00:51:26.380Z,153.33
2022-10-28T00:53:56.968Z,203.37
2022-10-28T00:56:27.553Z,163.50
2022-10-28T00:59:00.603Z,192.27
2022-10-28T01:01:28.689Z,191.10
2022-10-28T01:03:58.740Z,214.53
2022-10-28T01:06:29.494Z,204.67
2022-10-28T01:09:00.170Z,189.43
2022-10-28T01:11:54.219Z,183.00
2022-10-28T01:14:32.753Z,173.43
2022-10-28T01:17:15.863Z,177.27
2022-10-28T01:20:13.727Z,186.33
2022-10-28T01:22:48.554Z,163.97
2022-10-28T01:25:31.834Z,161.77
2022-10-28T01:28:14.975Z,159.63
2022-10-28T01:31:02.843Z,168.20
2022-10-28T01:33:35.943Z,177.70
2022-10-28T01:36:12.345Z,194.00
2022-10-28T01:38:51.151Z,138.43
2022-10-28T01:41:29.722Z,198.03
2022-10-28T01:44:06.087Z,172.50
2022-10-28T01:46:41.041Z,160.80
2022-10-28T01:49:13.464Z,150.97
2022-10-28T01:51:46.354Z,161.07
2022-10-28T01:54:20.216Z,170.27
2022-10-28T01:56:50.280Z,207.13
2022-10-28T01:59:23.394Z,157.13
2022-10-28T02:01:53.019Z,235.73
2022-10-28T02:04:21.134Z,164.23
2022-10-28T02:06:55.119Z,164.83
2022-10-28T02:09:35.032Z,169.67
2022-10-28T02:12:26.383Z,158.13
2022-10-28T02:15:15.534Z,154.83
2022-10-28T02:17:57.939Z,144.77
2022-10-28T02:20:36.076Z,149.83
2022-10-28T02:23:17.353Z,139.03
2022-10-28T02:25:52.722Z,137.10
2022-10-28T02:28:25.915Z,129.03
2022-10-28T02:31:00.251Z,147.23
2022-10-28T02:33:32.997Z,157.97
2022-10-28T02:36:04.773Z,140.67
2022-10-28T02:38:36.967Z,156.57
2022-10-28T02:41:09.979Z,151.60
2022-10-28T02:43:39.794Z,517.97
2022-10-28T02:46:09.365Z,174.90
2022-10-28T02:48:43.462Z,228.30
2022-10-28T02:51:14.932Z,192.47
2022-10-28T02:53:53.951Z,184.70
2022-10-28T02:56:22.859Z,184.07
2022-10-28T02:58:51.096Z,246.97
2022-10-28T03:01:19.163Z,200.97
2022-10-28T03:03:48.547Z,237.73
2022-10-28T03:06:16.529Z,215.43
2022-10-28T03:08:44.485Z,214.40
2022-10-28T03:11:12.428Z,230.93
2022-10-28T03:13:40.388Z,244.87
2022-10-28T03:16:08.386Z,222.07
2022-10-28T03:18:36.346Z,197.70
2022-10-28T03:21:05.833Z,233.73
2022-10-28T03:23:33.730Z,238.13
2022-10-28T03:26:01.641Z,272.93
2022-10-28T03:28:29.601Z,277.13
2022-10-28T03:30:57.528Z,246.93
2022-10-28T03:33:25.462Z,390.43
2022-10-28T03:35:53.453Z,211.47
2022-10-28T03:38:22.773Z,297.30
2022-10-28T03:40:51.229Z,217.27
2022-10-28T03:43:19.315Z,204.27
2022-10-28T03:45:47.258Z,180.67
2022-10-28T03:48:15.280Z,164.10
2022-10-28T03:50:43.284Z,216.87
2022-10-28T03:53:11.263Z,153.07
2022-10-28T03:55:40.576Z,145.87
2022-10-28T03:58:08.531Z,150.57
2022-10-28T04:00:36.483Z,158.87
2022-10-28T04:03:04.410Z,141.80
2022-10-28T04:05:32.342Z,134.30
2022-10-28T04:08:00.275Z,124.77
2022-10-28T04:10:28.200Z,124.77
2022-10-28T04:13:02.051Z,133.27
2022-10-28T04:15:29.960Z,129.33
2022-10-28T04:17:58.176Z,129.43
2022-10-28T04:20:27.342Z,160.57
2022-10-28T04:22:57.210Z,160.33
2022-10-28T04:25:26.954Z,134.53
2022-10-28T04:27:55.217Z,143.57
2022-10-28T04:30:25.246Z,133.60
2022-10-28T04:32:53.164Z,175.93
2022-10-28T04:35:21.145Z,112.27
2022-10-28T04:37:49.055Z,116.57
2022-10-28T04:40:17.226Z,96.37
2022-10-28T04:42:45.559Z,128.63
2022-10-28T04:45:13.604Z,148.80
2022-10-28T04:47:42.864Z,140.43
2022-10-28T04:50:11.024Z,143.00
2022-10-28T04:52:38.978Z,125.33
2022-10-28T04:55:07.688Z,108.70
2022-10-28T04:57:35.639Z,138.33
2022-10-28T05:00:03.746Z,121.30
2022-10-28T05:02:31.971Z,121.43
2022-10-28T05:05:03.641Z,107.37
2022-10-28T05:07:31.850Z,139.10
2022-10-28T05:09:59.785Z,113.53
2022-10-28T05:12:27.708Z,139.93
2022-10-28T05:14:55.633Z,129.60
2022-10-28T05:17:23.558Z,161.10
2022-10-28T05:19:51.536Z,151.13
2022-10-28T05:22:20.785Z,132.33
2022-10-28T05:24:48.683Z,97.87
2022-10-28T05:27:17.610Z,90.07
2022-10-28T05:29:45.514Z,177.57
2022-10-28T05:32:13.469Z,150.17
2022-10-28T05:34:41.374Z,131.13
2022-10-28T05:37:09.311Z,144.27
2022-10-28T05:39:38.600Z,186.80
2022-10-28T05:42:06.609Z,207.83
2022-10-28T05:44:34.531Z,140.13
2022-10-28T05:47:02.421Z,97.90
2022-10-28T05:49:30.476Z,120.57
2022-10-28T05:51:58.441Z,112.93
2022-10-28T05:54:26.369Z,98.67
2022-10-28T05:56:55.757Z,96.10
2022-10-28T05:59:23.717Z,98.90
2022-10-28T06:01:51.662Z,120.53
2022-10-28T06:04:19.677Z,115.93
2022-10-28T06:06:47.602Z,90.23
2022-10-28T06:09:15.546Z,88.30
2022-10-28T06:11:41.938Z,85.10
2022-10-28T06:14:11.305Z,91.87
2022-10-28T06:16:39.234Z,85.63
2022-10-28T06:19:07.138Z,92.93
2022-10-28T06:21:35.038Z,82.27
2022-10-28T06:24:03.158Z,94.37
2022-10-28T06:26:31.071Z,79.33
2022-10-28T06:28:58.975Z,77.00
2022-10-28T06:31:28.245Z,81.20
2022-10-28T06:33:57.188Z,77.53
2022-10-28T06:36:25.080Z,82.30
2022-10-28T06:38:53.664Z,88.77
2022-10-28T06:41:21.563Z,93.13
2022-10-28T06:43:49.468Z,85.60
2022-10-28T06:46:17.504Z,90.00
2022-10-28T06:48:48.307Z,95.77
2022-10-28T06:51:17.159Z,92.23
2022-10-28T06:53:45.111Z,94.77
2022-10-28T06:56:13.013Z,101.53
2022-10-28T06:58:40.908Z,104.20
2022-10-28T07:01:09.165Z,89.17
2022-10-28T07:03:37.220Z,103.80
2022-10-28T07:06:07.368Z,96.63
2022-10-28T07:08:35.293Z,99.17
2022-10-28T07:11:03.600Z,107.13
2022-10-28T07:13:31.546Z,110.47
2022-10-28T07:16:00.724Z,114.40
2022-10-28T07:18:30.029Z,117.50
2022-10-28T07:20:59.595Z,111.97
2022-10-28T07:23:29.148Z,114.47
2022-10-28T07:25:58.386Z,106.30
2022-10-28T07:28:27.419Z,111.47
2022-10-28T07:30:55.531Z,113.90
2022-10-28T07:33:23.438Z,110.73
2022-10-28T07:35:51.357Z,117.30
2022-10-28T07:38:19.280Z,113.30
2022-10-28T07:40:48.624Z,102.90
2022-10-28T07:43:16.538Z,104.43
2022-10-28T07:45:44.498Z,102.70
2022-10-28T07:48:12.403Z,98.38
2022-10-28T07:50:41.669Z,94.20
2022-10-28T07:53:09.763Z,88.00
2022-10-28T07:55:37.752Z,93.63
2022-10-28T07:58:07.002Z,84.07
2022-10-28T08:00:35.027Z,77.22
2022-10-28T08:03:03.580Z,75.40
2022-10-28T08:05:31.570Z,65.93
2022-10-28T08:07:59.481Z,64.80
2022-10-28T08:10:28.313Z,67.67
2022-10-28T08:12:57.396Z,69.78
2022-10-28T08:15:27.501Z,70.00
2022-10-28T08:17:55.913Z,67.30
2022-10-28T08:20:24.599Z,64.20
2022-10-28T08:22:52.917Z,71.63
2022-10-28T08:25:21.151Z,67.78
2022-10-28T08:27:49.102Z,64.32
2022-10-28T08:30:17.210Z,65.05
2022-10-28T08:32:46.541Z,62.65
2022-10-28T08:35:14.624Z,62.47
2022-10-28T08:37:46.102Z,64.28
2022-10-28T08:40:14.755Z,65.63
2022-10-28T08:42:47.870Z,63.35
2022-10-28T08:45:26.334Z,66.82
2022-10-28T08:48:06.783Z,66.00
2022-10-28T08:50:45.666Z,64.22
2022-10-28T08:53:19.611Z,53.15
2022-10-28T08:55:50.315Z,60.25
2022-10-28T08:58:21.487Z,56.30
2022-10-28T09:00:54.172Z,56.58
2022-10-28T09:03:26.415Z,59.85
2022-10-28T09:06:01.524Z,55.53
2022-10-28T09:08:32.613Z,56.40
2022-10-28T09:11:16.343Z,51.38
2022-10-28T09:14:00.041Z,56.75
2022-10-28T09:16:40.017Z,58.22
2022-10-28T09:19:18.115Z,52.28
2022-10-28T09:21:49.913Z,47.38
2022-10-28T09:24:22.055Z,46.78
2022-10-28T09:26:57.820Z,47.13
2022-10-28T09:29:43.250Z,51.80
2022-10-28T09:32:21.122Z,52.65
2022-10-28T09:34:55.640Z,48.05
2022-10-28T09:37:29.127Z,48.47
2022-10-28T09:40:01.151Z,47.70
2022-10-28T09:42:33.976Z,45.17
2022-10-28T09:45:05.395Z,44.15
2022-10-28T09:47:38.692Z,42.53
2022-10-28T09:50:16.559Z,46.22
2022-10-28T09:52:52.061Z,42.47
2022-10-28T09:55:22.083Z,44.47
2022-10-28T09:57:50.326Z,45.40
2022-10-28T10:00:19.201Z,38.78
2022-10-28T10:02:47.220Z,43.92
2022-10-28T10:05:18.644Z,42.20
2022-10-28T10:07:50.449Z,43.38
2022-10-28T10:10:23.168Z,43.22
2022-10-28T10:12:53.473Z,44.78
2022-10-28T10:15:29.710Z,38.45
2022-10-28T10:18:00.068Z,40.50
2022-10-28T10:20:29.698Z,38.33
2022-10-28T10:22:57.756Z,43.00
2022-10-28T10:25:31.152Z,41.55
2022-10-28T10:28:02.703Z,40.22
2022-10-28T10:30:32.932Z,35.45
2022-10-28T10:33:01.990Z,30.38
2022-10-28T10:35:32.846Z,31.30
2022-10-28T10:38:03.176Z,31.35
2022-10-28T10:40:33.467Z,32.33
2022-10-28T10:43:21.467Z,33.75
2022-10-28T10:46:00.229Z,28.08
2022-10-28T10:48:28.644Z,28.17
2022-10-28T10:50:58.044Z,29.42
2022-10-28T10:53:27.658Z,31.40
2022-10-28T10:55:58.896Z,30.35
2022-10-28T10:58:29.083Z,29.88
2022-10-28T11:00:59.572Z,26.90
2022-10-28T11:03:31.778Z,28.90
2022-10-28T11:06:21.992Z,25.67
2022-10-28T11:08:55.194Z,24.95
2022-10-28T11:11:32.051Z,29.70
2022-10-28T11:14:05.799Z,24.30
2022-10-28T11:16:33.845Z,24.70
2022-10-28T11:19:20.507Z,23.95
2022-10-28T11:21:59.438Z,23.50
2022-10-28T11:24:44.540Z,23.25
2022-10-28T11:27:20.618Z,25.65
2022-10-28T11:29:49.306Z,24.88
2022-10-28T11:32:30.287Z,23.50
2022-10-28T11:35:23.450Z,25.10
2022-10-28T11:38:06.151Z,26.80
2022-10-28T11:40:41.614Z,24.00
2022-10-28T11:43:20.753Z,22.90
2022-10-28T11:45:54.351Z,26.80
2022-10-28T11:48:42.361Z,25.00
2022-10-28T11:51:21.890Z,21.90
2022-10-28T11:54:20.435Z,26.48
2022-10-28T11:56:51.046Z,24.05
2022-10-28T11:59:34.564Z,22.95
2022-10-28T12:02:17.317Z,22.08
2022-10-28T12:04:55.390Z,26.90
2022-10-28T12:07:55.158Z,22.25
2022-10-28T12:10:38.440Z,28.60
2022-10-28T12:13:14.613Z,27.90
2022-10-28T12:15:51.448Z,26.65
2022-10-28T12:18:23.996Z,24.15
2022-10-28T12:20:57.603Z,19.77
2022-10-28T12:23:27.299Z,23.52
2022-10-28T12:25:58.846Z,21.30
2022-10-28T12:28:31.684Z,25.27
2022-10-28T12:31:00.203Z,24.98
2022-10-28T12:33:32.629Z,23.88
2022-10-28T12:36:18.142Z,25.38
2022-10-28T12:38:52.716Z,23.05
2022-10-28T12:41:24.465Z,24.88
2022-10-28T12:43:55.541Z,24.10
2022-10-28T12:46:30.205Z,23.80
2022-10-28T12:49:04.732Z,29.92
2022-10-28T12:51:38.668Z,23.75
2022-10-28T12:54:17.821Z,21.77
2022-10-28T12:56:52.867Z,22.52
2022-10-28T12:59:29.048Z,25.42
2022-10-28T13:02:01.269Z,21.42
2022-10-28T13:04:29.883Z,19.23
2022-10-28T13:07:23.816Z,17.80
2022-10-28T13:10:06.393Z,19.58
2022-10-28T13:13:00.999Z,22.50
2022-10-28T13:15:59.254Z,21.98
2022-10-28T13:18:53.953Z,27.40
2022-10-28T13:21:31.415Z,29.17
2022-10-28T13:24:06.438Z,26.90
2022-10-28T13:26:36.414Z,25.63
2022-10-28T13:29:08.228Z,22.35
2022-10-28T13:31:41.829Z,23.27
2022-10-28T13:34:12.344Z,23.27
2022-10-28T13:36:43.131Z,21.75
2022-10-28T13:39:25.059Z,23.33
2022-10-28T13:42:26.154Z,21.73
2022-10-28T13:44:57.498Z,21.67
2022-10-28T13:47:30.697Z,23.98
2022-10-28T13:50:41.681Z,19.38
2022-10-28T13:53:55.334Z,24.70
2022-10-28T13:56:46.675Z,21.88
2022-10-28T13:59:31.623Z,22.65
2022-10-28T14:04:58.268Z,25.00
2022-10-28T14:07:29.045Z,24.98
2022-10-28T14:10:08.898Z,21.40
2022-10-28T14:12:43.879Z,23.55
2022-10-28T14:15:25.157Z,24.27
2022-10-28T14:18:09.864Z,23.77
2022-10-28T14:20:39.800Z,21.35
2022-10-28T14:23:53.211Z,26.70
2022-10-28T14:26:21.233Z,25.98
2022-10-28T14:28:56.784Z,28.13
2022-10-28T14:31:45.124Z,24.88
2022-10-28T14:34:43.323Z,23.48
2022-10-28T14:37:28.308Z,28.92
2022-10-28T14:40:08.711Z,29.15
2022-10-28T14:42:55.531Z,23.35
2022-10-28T14:45:33.157Z,24.63
2022-10-28T14:48:21.527Z,24.05
2022-10-28T14:50:53.165Z,24.40
2022-10-28T14:53:26.559Z,22.60
2022-10-28T14:56:01.160Z,26.23
2022-10-28T14:58:32.139Z,26.75
2022-10-28T15:01:29.034Z,29.23
2022-10-28T15:04:01.221Z,26.02
2022-10-28T15:06:39.390Z,24.48
2022-10-28T15:09:19.116Z,32.05
2022-10-28T15:11:48.982Z,25.83
2022-10-28T15:14:29.158Z,26.30
2022-10-28T15:16:57.769Z,28.40
2022-10-28T15:19:29.089Z,31.60
2022-10-28T15:22:07.461Z,27.27
2022-10-28T15:24:35.673Z,25.73
2022-10-28T15:27:03.656Z,26.52
2022-10-28T15:29:32.280Z,25.02
2022-10-28T15:32:13.816Z,28.38
2022-10-28T15:34:42.239Z,30.98
2022-10-28T15:37:12.127Z,31.08
2022-10-28T15:39:40.796Z,30.92
2022-10-28T15:42:37.451Z,28.83
2022-10-28T15:45:06.515Z,24.50
2022-10-28T15:47:36.348Z,26.58
2022-10-28T15:50:21.401Z,27.27
2022-10-28T15:52:53.485Z,31.45
2022-10-28T15:56:02.357Z,33.08
2022-10-28T15:58:38.945Z,31.23
2022-10-28T16:01:10.829Z,33.22
2022-10-28T16:03:44.356Z,29.73
2022-10-28T16:06:28.980Z,31.95
2022-10-28T16:09:05.286Z,30.40
2022-10-28T16:11:39.296Z,33.25
2022-10-28T16:14:34.790Z,31.02
2022-10-28T16:17:15.570Z,30.58
2022-10-28T16:19:47.627Z,28.98
2022-10-28T16:22:16.388Z,30.75
2022-10-28T16:24:46.483Z,27.13
2022-10-28T16:27:23.605Z,29.50
2022-10-28T16:29:52.224Z,27.90
2022-10-28T16:32:23.583Z,28.48
2022-10-28T16:34:51.531Z,32.92
2022-10-28T16:37:23.199Z,29.05
2022-10-28T16:39:52.519Z,30.20
2022-10-28T16:42:21.612Z,28.42
2022-10-28T16:44:50.056Z,27.67
2022-10-28T16:47:19.920Z,29.35
2022-10-28T16:49:54.019Z,24.38
2022-10-28T16:52:27.695Z,27.58
2022-10-28T16:54:57.828Z,27.65
2022-10-28T16:57:26.387Z,28.65
2022-10-28T16:59:54.697Z,21.95
2022-10-28T17:02:27.618Z,27.42
2022-10-28T17:04:56.319Z,27.27
2022-10-28T17:07:24.605Z,25.88
2022-10-28T17:09:52.958Z,24.77
2022-10-28T17:12:24.623Z,24.95
2022-10-28T17:14:52.891Z,27.52
2022-10-28T17:17:20.984Z,25.95
2022-10-28T17:19:48.993Z,22.80
2022-10-28T17:22:16.908Z,24.05
2022-10-28T17:24:44.847Z,27.23
2022-10-28T17:27:12.943Z,26.92
2022-10-28T17:29:42.540Z,24.23
2022-10-28T17:32:10.675Z,25.83
2022-10-28T17:34:38.640Z,21.75
2022-10-28T17:37:07.850Z,23.33
2022-10-28T17:39:35.987Z,28.48
2022-10-28T17:42:04.374Z,23.90
2022-10-28T17:44:32.404Z,24.40
2022-10-28T17:47:01.994Z,26.10
2022-10-28T17:49:30.067Z,21.63
2022-10-28T17:51:57.982Z,26.20
2022-10-28T17:54:25.967Z,23.58
2022-10-28T17:56:53.922Z,24.77
2022-10-28T17:59:21.915Z,24.48
2022-10-28T18:01:49.954Z,23.08
2022-10-28T18:04:20.230Z,25.98
2022-10-28T18:06:48.251Z,20.20
2022-10-28T18:09:16.226Z,20.55
2022-10-28T18:11:44.228Z,25.45
2022-10-28T18:14:12.157Z,27.45
2022-10-28T18:16:40.161Z,26.08
2022-10-28T18:19:08.642Z,28.33
2022-10-28T18:21:37.952Z,24.50
2022-10-28T18:24:06.347Z,22.88
2022-10-28T18:26:35.550Z,25.67
2022-10-28T18:29:04.802Z,21.20
2022-10-28T18:31:34.037Z,24.00
2022-10-28T18:34:02.745Z,21.23
2022-10-28T18:36:34.551Z,22.10
2022-10-28T18:39:05.651Z,21.77
2022-10-28T18:41:36.081Z,25.00
2022-10-28T18:44:05.444Z,20.38
2022-10-28T18:46:35.343Z,22.17
2022-10-28T18:49:04.369Z,22.20
2022-10-28T18:51:32.465Z,23.00
2022-10-28T18:54:00.447Z,21.02
2022-10-28T18:56:30.792Z,24.73
2022-10-28T18:58:59.682Z,21.80
2022-10-28T19:01:29.564Z,20.20
2022-10-28T19:03:58.737Z,23.40
2022-10-28T19:06:29.852Z,21.25
2022-10-28T19:08:59.402Z,17.60
2022-10-28T19:11:31.295Z,20.60
2022-10-28T19:14:00.817Z,19.58
2022-10-28T19:16:29.678Z,17.38
2022-10-28T19:18:58.570Z,20.58
2022-10-28T19:21:27.706Z,18.17
2022-10-28T19:23:56.217Z,21.35
2022-10-28T19:26:24.826Z,19.75
2022-10-28T19:28:54.196Z,23.08
2022-10-28T19:31:24.604Z,22.08
2022-10-28T19:33:53.726Z,20.10
2022-10-28T19:36:23.201Z,21.50
2022-10-28T19:38:53.849Z,19.10
2022-10-28T19:41:23.324Z,17.90
2022-10-28T19:43:58.149Z,21.25
2022-10-28T19:46:28.072Z,21.25
2022-10-28T19:48:57.611Z,19.77
2022-10-28T19:51:28.184Z,22.88
2022-10-28T19:53:57.716Z,19.35
2022-10-28T19:56:26.316Z,22.67
2022-10-28T19:58:57.091Z,18.27
2022-10-28T20:01:26.328Z,20.88
2022-10-28T20:03:55.378Z,18.35
2022-10-28T20:06:24.898Z,21.95
2022-10-28T20:08:53.012Z,19.85
2022-10-28T20:11:25.859Z,20.60
2022-10-28T20:13:57.389Z,21.10
2022-10-28T20:16:26.452Z,20.48
2022-10-28T20:18:55.808Z,22.10
2022-10-28T20:21:25.702Z,23.92
2022-10-28T20:23:55.747Z,21.42
2022-10-28T20:26:25.652Z,19.50
2022-10-28T20:28:55.449Z,20.63
2022-10-28T20:31:25.110Z,20.15
2022-10-28T20:33:54.690Z,19.30
2022-10-28T20:36:24.977Z,19.17
2022-10-28T20:38:57.230Z,20.80
2022-10-28T20:41:26.237Z,17.92
2022-10-28T20:43:56.211Z,20.60
2022-10-28T20:46:25.049Z,25.05
2022-10-28T20:48:54.241Z,21.50
2022-10-28T20:51:22.832Z,22.98
2022-10-28T20:53:51.161Z,21.80
2022-10-28T20:56:20.449Z,29.40
2022-10-28T20:58:48.712Z,30.08
2022-10-28T21:01:20.472Z,22.42
2022-10-28T21:03:49.340Z,23.88
2022-10-28T21:06:18.532Z,22.90
2022-10-28T21:08:46.472Z,21.77
2022-10-28T21:11:16.354Z,20.90
2022-10-28T21:13:45.519Z,25.02
2022-10-28T21:16:14.084Z,22.80
2022-10-28T21:18:43.373Z,28.63
2022-10-28T21:21:12.138Z,25.50
2022-10-28T21:23:40.373Z,22.13
2022-10-28T21:26:09.229Z,24.90
2022-10-28T21:28:37.362Z,20.48
2022-10-28T21:31:07.128Z,24.85
2022-10-28T21:33:36.218Z,20.83
2022-10-28T21:36:07.503Z,22.63
2022-10-28T21:38:36.444Z,30.75
2022-10-28T21:41:06.602Z,26.48
2022-10-28T21:43:37.134Z,25.75
2022-10-28T21:46:05.609Z,23.67
2022-10-28T21:48:34.393Z,24.48
2022-10-28T21:51:06.306Z,22.50
2022-10-28T21:53:39.381Z,26.13
2022-10-28T21:56:13.780Z,19.58
2022-10-28T21:58:44.481Z,25.45
2022-10-28T22:01:14.020Z,23.48
2022-10-28T22:03:42.317Z,23.77
2022-10-28T22:06:10.451Z,22.38
2022-10-28T22:08:40.015Z,24.23
2022-10-28T22:11:11.385Z,21.20
2022-10-28T22:13:39.481Z,25.60
2022-10-28T22:16:09.151Z,23.50
2022-10-28T22:18:38.648Z,21.00
2022-10-28T22:21:08.319Z,26.52
2022-10-28T22:23:36.803Z,26.55
2022-10-28T22:26:07.444Z,21.30
2022-10-28T22:28:35.611Z,21.35
2022-10-28T22:31:05.008Z,21.77
2022-10-28T22:33:33.073Z,23.98
2022-10-28T22:36:02.723Z,22.48
2022-10-28T22:38:30.815Z,24.65
2022-10-28T22:41:07.470Z,22.63
2022-10-28T22:43:36.035Z,23.67
2022-10-28T22:46:04.444Z,21.52
2022-10-28T22:48:33.229Z,23.58
2022-10-28T22:51:01.743Z,23.33
2022-10-28T22:53:29.708Z,21.48
2022-10-28T22:55:58.225Z,18.92
2022-10-28T22:58:27.831Z,25.80
2022-10-28T23:01:04.897Z,25.77
2022-10-28T23:03:36.453Z,22.38
2022-10-28T23:06:04.866Z,23.45
2022-10-28T23:08:33.827Z,19.40
2022-10-28T23:11:01.942Z,24.77
2022-10-28T23:13:31.472Z,19.20
2022-10-28T23:16:04.055Z,19.98
2022-10-28T23:18:32.438Z,20.42
2022-10-28T23:21:05.351Z,23.67
2022-10-28T23:23:33.303Z,20.55
2022-10-28T23:26:01.288Z,18.25
2022-10-28T23:28:29.330Z,19.77
2022-10-28T23:31:01.905Z,23.83
2022-10-28T23:33:30.873Z,22.23
2022-10-28T23:36:00.323Z,21.98
2022-10-28T23:38:28.242Z,20.52
2022-10-28T23:40:58.066Z,23.83
2022-10-28T23:43:26.121Z,24.08
2022-10-28T23:45:54.298Z,20.38
2022-10-28T23:48:24.230Z,22.30
2022-10-28T23:50:52.909Z,22.30
2022-10-28T23:53:21.329Z,20.17
2022-10-28T23:55:50.834Z,20.00
2022-10-28T23:58:20.613Z,19.15
